LPR1342 SAZM-SABE
Flight info
| Callsign | LPR1342 |
|---|---|
| Flight time | 0h 39m |
| Altitude | 39000 |
| Route | PULPA1G PULPA UW31 TENIL TENIL8R |
| Aircraft | B737/M-SDE2E3FGHIRWXY/LB1 |
Departure
| Time | 2026-04-30 18:00 |
|---|---|
| Airport | Ástor Piazzola International Airport (SAZM) |
Arrival
| Time | 2026-04-30 18:39 |
|---|---|
| Airport | Aeroparque Jorge Newbery (SABE) |
| Time | Latitude | Longitude | Altitude | Speed | Heading |
|---|---|---|---|---|---|
| 2026-04-30 17:39 | -37.93322 | -57.58084 | 47 ft | 0 kts | 304° |
| 2026-04-30 17:43 | -37.93332 | -57.58067 | 45 ft | 2 kts | 313° |
| 2026-04-30 17:44 | -37.93375 | -57.58039 | 47 ft | 2 kts | 3° |
| 2026-04-30 17:44 | -37.93410 | -57.58053 | 46 ft | 0 kts | 27° |
| 2026-04-30 17:49 | -37.93415 | -57.57893 | 45 ft | 12 kts | 122° |
| 2026-04-30 17:50 | -37.93563 | -57.57558 | 47 ft | 10 kts | 118° |
| 2026-04-30 17:51 | -37.93663 | -57.57330 | 46 ft | 9 kts | 119° |
| 2026-04-30 17:52 | -37.93756 | -57.57125 | 47 ft | 9 kts | 118° |
| 2026-04-30 17:53 | -37.93906 | -57.56789 | 44 ft | 9 kts | 120° |
| 2026-04-30 17:54 | -37.94010 | -57.56551 | 45 ft | 9 kts | 118° |
| 2026-04-30 17:55 | -37.94010 | -57.56400 | 45 ft | 0 kts | 62° |
| 2026-04-30 17:56 | -37.93956 | -57.56299 | 44 ft | 10 kts | 21° |
| 2026-04-30 17:57 | -37.93914 | -57.56351 | 41 ft | 0 kts | 302° |
| 2026-04-30 17:59 | -37.92966 | -57.58210 | 369 ft | 154 kts | 305° |
| 2026-04-30 18:00 | -37.90415 | -57.63332 | 3082 ft | 213 kts | 302° |
| 2026-04-30 18:00 | -37.87888 | -57.68539 | 5126 ft | 255 kts | 300° |
| 2026-04-30 18:01 | -37.85978 | -57.72380 | 7049 ft | 261 kts | 300° |
| 2026-04-30 18:02 | -37.80854 | -57.74711 | 9687 ft | 291 kts | 355° |
| 2026-04-30 18:02 | -37.74715 | -57.74137 | 9970 ft | 295 kts | 357° |
| 2026-04-30 18:03 | -37.68512 | -57.73991 | 10243 ft | 320 kts | 350° |
| 2026-04-30 18:04 | -37.61098 | -57.74447 | 11180 ft | 379 kts | 351° |
| 2026-04-30 18:05 | -37.50437 | -57.74936 | 14158 ft | 391 kts | 351° |
| 2026-04-30 18:06 | -37.39296 | -57.75429 | 16567 ft | 409 kts | 349° |
| 2026-04-30 18:07 | -37.27715 | -57.75940 | 18701 ft | 425 kts | 349° |
| 2026-04-30 18:08 | -37.18779 | -57.76328 | 20194 ft | 431 kts | 348° |
| 2026-04-30 18:09 | -37.06685 | -57.76856 | 22006 ft | 441 kts | 348° |
| 2026-04-30 18:10 | -36.94281 | -57.77398 | 23565 ft | 450 kts | 348° |
| 2026-04-30 18:11 | -36.81664 | -57.77944 | 24815 ft | 457 kts | 348° |
| 2026-04-30 18:11 | -36.72081 | -57.78359 | 25725 ft | 461 kts | 348° |
| 2026-04-30 18:12 | -36.62407 | -57.78778 | 26568 ft | 466 kts | 348° |
| 2026-04-30 18:13 | -36.55957 | -57.79055 | 27198 ft | 466 kts | 348° |
| 2026-04-30 18:13 | -36.47352 | -57.79417 | 28413 ft | 459 kts | 348° |
| 2026-04-30 18:14 | -36.39956 | -57.79735 | 29389 ft | 457 kts | 348° |
| 2026-04-30 18:15 | -36.30482 | -57.80141 | 30713 ft | 451 kts | 348° |
| 2026-04-30 18:15 | -36.21146 | -57.80541 | 31892 ft | 446 kts | 348° |
| 2026-04-30 18:16 | -36.14961 | -57.80805 | 32628 ft | 443 kts | 348° |
| 2026-04-30 18:16 | -36.08800 | -57.81069 | 33327 ft | 441 kts | 348° |
| 2026-04-30 18:17 | -36.05747 | -57.81200 | 33654 ft | 440 kts | 348° |
| 2026-04-30 18:17 | -36.02707 | -57.81329 | 33997 ft | 438 kts | 348° |
| 2026-04-30 18:17 | -35.96627 | -57.81588 | 34541 ft | 436 kts | 348° |
| 2026-04-30 18:18 | -35.93613 | -57.81717 | 34789 ft | 436 kts | 348° |
| 2026-04-30 18:18 | -35.90602 | -57.81845 | 35054 ft | 435 kts | 348° |
| 2026-04-30 18:18 | -35.87560 | -57.81974 | 35331 ft | 433 kts | 348° |
| 2026-04-30 18:18 | -35.84565 | -57.82101 | 35566 ft | 433 kts | 348° |
| 2026-04-30 18:19 | -35.81568 | -57.82228 | 35802 ft | 432 kts | 348° |
| 2026-04-30 18:19 | -35.78583 | -57.82354 | 36051 ft | 431 kts | 348° |
| 2026-04-30 18:19 | -35.75575 | -57.82481 | 36307 ft | 430 kts | 347° |
| 2026-04-30 18:19 | -35.72608 | -57.82607 | 36514 ft | 429 kts | 347° |
| 2026-04-30 18:20 | -35.69632 | -57.82734 | 36712 ft | 429 kts | 348° |
| 2026-04-30 18:20 | -35.66631 | -57.82860 | 36929 ft | 428 kts | 348° |
| 2026-04-30 18:20 | -35.63665 | -57.82987 | 36976 ft | 432 kts | 348° |
| 2026-04-30 18:21 | -35.57619 | -57.83242 | 36980 ft | 432 kts | 348° |
| 2026-04-30 18:21 | -35.51665 | -57.83568 | 36984 ft | 423 kts | 345° |
| 2026-04-30 18:22 | -35.45825 | -57.84252 | 37001 ft | 423 kts | 344° |
| 2026-04-30 18:22 | -35.39950 | -57.84993 | 36535 ft | 432 kts | 345° |
| 2026-04-30 18:22 | -35.36958 | -57.85354 | 35874 ft | 429 kts | 345° |
| 2026-04-30 18:23 | -35.34024 | -57.85691 | 35338 ft | 425 kts | 345° |
| 2026-04-30 18:23 | -35.31073 | -57.86026 | 34812 ft | 425 kts | 345° |
| 2026-04-30 18:23 | -35.28144 | -57.86361 | 34307 ft | 427 kts | 345° |
| 2026-04-30 18:23 | -35.25165 | -57.86702 | 33757 ft | 429 kts | 345° |
| 2026-04-30 18:24 | -35.19280 | -57.87549 | 32587 ft | 421 kts | 335° |
| 2026-04-30 18:24 | -35.16643 | -57.88931 | 32048 ft | 407 kts | 322° |
| 2026-04-30 18:24 | -35.14327 | -57.90885 | 31512 ft | 403 kts | 315° |
| 2026-04-30 18:25 | -35.12329 | -57.93246 | 30957 ft | 398 kts | 304° |
| 2026-04-30 18:25 | -35.08901 | -57.98603 | 29902 ft | 403 kts | 303° |
| 2026-04-30 18:25 | -35.07174 | -58.01309 | 29302 ft | 405 kts | 304° |
| 2026-04-30 18:26 | -35.03670 | -58.06756 | 28130 ft | 410 kts | 304° |
| 2026-04-30 18:26 | -35.01901 | -58.09490 | 27561 ft | 412 kts | 304° |
| 2026-04-30 18:26 | -35.00121 | -58.12232 | 27006 ft | 413 kts | 304° |
| 2026-04-30 18:27 | -34.96530 | -58.17753 | 25922 ft | 417 kts | 304° |
| 2026-04-30 18:27 | -34.94727 | -58.20521 | 25393 ft | 418 kts | 304° |
| 2026-04-30 18:28 | -34.91101 | -58.26081 | 24358 ft | 419 kts | 304° |
| 2026-04-30 18:28 | -34.89303 | -58.28832 | 23820 ft | 412 kts | 304° |
| 2026-04-30 18:28 | -34.85829 | -58.34141 | 22292 ft | 402 kts | 304° |
| 2026-04-30 18:29 | -34.84098 | -58.36786 | 21527 ft | 396 kts | 304° |
| 2026-04-30 18:29 | -34.79207 | -58.44240 | 19329 ft | 357 kts | 304° |
| 2026-04-30 18:30 | -34.76687 | -58.48081 | 18171 ft | 342 kts | 304° |
| 2026-04-30 18:30 | -34.73267 | -58.53295 | 16377 ft | 332 kts | 305° |
| 2026-04-30 18:31 | -34.71839 | -58.55469 | 15636 ft | 327 kts | 305° |
| 2026-04-30 18:31 | -34.69048 | -58.59711 | 14225 ft | 320 kts | 306° |
| 2026-04-30 18:32 | -34.66269 | -58.63933 | 12492 ft | 320 kts | 307° |
| 2026-04-30 18:32 | -34.64879 | -58.66041 | 11631 ft | 320 kts | 307° |
| 2026-04-30 18:32 | -34.62142 | -58.70188 | 10532 ft | 301 kts | 308° |
| 2026-04-30 18:33 | -34.60874 | -58.72105 | 10381 ft | 281 kts | 308° |
| 2026-04-30 18:33 | -34.58485 | -58.75510 | 10044 ft | 253 kts | 324° |
| 2026-04-30 18:33 | -34.56887 | -58.76245 | 9889 ft | 244 kts | 349° |
| 2026-04-30 18:34 | -34.55174 | -58.76159 | 9311 ft | 253 kts | 9° |
| 2026-04-30 18:34 | -34.52208 | -58.73771 | 8228 ft | 270 kts | 52° |
| 2026-04-30 18:34 | -34.51275 | -58.71779 | 7721 ft | 273 kts | 58° |
| 2026-04-30 18:35 | -34.50407 | -58.69749 | 7207 ft | 274 kts | 59° |
| 2026-04-30 18:35 | -34.49529 | -58.67696 | 6682 ft | 274 kts | 59° |
| 2026-04-30 18:35 | -34.48640 | -58.65641 | 6153 ft | 274 kts | 59° |
| 2026-04-30 18:36 | -34.46851 | -58.61550 | 5067 ft | 274 kts | 59° |
| 2026-04-30 18:36 | -34.46295 | -58.59377 | 4409 ft | 281 kts | 87° |
| 2026-04-30 18:36 | -34.48028 | -58.55072 | 2910 ft | 298 kts | 127° |
| 2026-04-30 18:37 | -34.49274 | -58.53152 | 2667 ft | 276 kts | 126° |
| 2026-04-30 18:37 | -34.50368 | -58.51359 | 2274 ft | 256 kts | 125° |
| 2026-04-30 18:37 | -34.51426 | -58.49660 | 1872 ft | 243 kts | 123° |
| 2026-04-30 18:37 | -34.52344 | -58.48043 | 1621 ft | 225 kts | 123° |
| 2026-04-30 18:38 | -34.53252 | -58.46499 | 1013 ft | 223 kts | 122° |
| 2026-04-30 18:38 | -34.54036 | -58.44939 | 545 ft | 208 kts | 120° |
| 2026-04-30 18:38 | -34.54817 | -58.43576 | 300 ft | 189 kts | 120° |
| 2026-04-30 18:38 | -34.55508 | -58.42310 | 55 ft | 168 kts | 120° |
| 2026-04-30 18:39 | -34.56097 | -58.41260 | 27 ft | 132 kts | 116° |
| 2026-04-30 18:39 | -34.56396 | -58.40726 | 25 ft | 41 kts | 121° |
| 2026-04-30 18:39 | -34.56389 | -58.40631 | 27 ft | 0 kts | 40° |
| 2026-04-30 18:40 | -34.56381 | -58.40630 | 25 ft | 3 kts | 8° |
| 2026-04-30 18:40 | -34.56342 | -58.40661 | 29 ft | 11 kts | 319° |
| 2026-04-30 18:40 | -34.56279 | -58.40730 | 26 ft | 12 kts | 319° |
| 2026-04-30 18:40 | -34.56218 | -58.40801 | 30 ft | 12 kts | 312° |
| 2026-04-30 18:41 | -34.56166 | -58.40876 | 28 ft | 12 kts | 284° |
| 2026-04-30 18:41 | -34.56132 | -58.40963 | 26 ft | 11 kts | 307° |
| 2026-04-30 18:41 | -34.56083 | -58.41037 | 26 ft | 11 kts | 313° |
| 2026-04-30 18:41 | -34.56010 | -58.41046 | 28 ft | 11 kts | 344° |
| 2026-04-30 18:42 | -34.55952 | -58.41099 | 28 ft | 11 kts | 309° |
| 2026-04-30 18:42 | -34.55861 | -58.41232 | 26 ft | 10 kts | 310° |
| 2026-04-30 18:42 | -34.55840 | -58.41271 | 28 ft | 0 kts | 303° |
| 2026-04-30 18:45 | -34.55803 | -58.41245 | 26 ft | 0 kts | 39° |